Silver Fork, California
Current Conditions -  °F | °C
As of 11:53 AM on Thursday 29 Jan 2015 (Local Time) from KTVL Reporting Station
Clear Clear  
Wind Chill: 47°   Ceiling: Unl
Heat Index: 47°   Visibility: 10mi
Dew Point: 30°   Wind: 0mph
Humidity: 52%   Direction: NA
Pressure: 30.22"   Gusts: NA
Location:  38.7639°N, 120.248°W
Report Text: KTVL 291953Z AUTO 00000KT 10SM CLR 08/M01 A3022 RMK AO2 SLP222 T00831011
Loading
Personal Weather Stations






























Interactive Weather Map New forecast layout! Learn more

10-Day Weather Forecast

Advertisements
Track Severe Weather on mobile